createdAt,value
2017-08-22T00:00:52.772Z,13.80
2017-08-22T00:03:27.088Z,13.70
2017-08-22T00:05:55.436Z,13.70
2017-08-22T00:08:23.806Z,13.70
2017-08-22T00:10:52.193Z,13.70
2017-08-22T00:13:20.670Z,13.70
2017-08-22T00:15:48.995Z,13.60
2017-08-22T00:18:17.296Z,13.60
2017-08-22T00:20:45.704Z,13.60
2017-08-22T00:23:14.088Z,13.60
2017-08-22T00:25:42.420Z,13.50
2017-08-22T00:28:10.711Z,13.50
2017-08-22T00:30:39.224Z,13.50
2017-08-22T00:33:07.595Z,13.50
2017-08-22T00:35:35.981Z,13.50
2017-08-22T00:38:04.313Z,13.40
2017-08-22T00:40:32.648Z,13.40
2017-08-22T00:43:01.005Z,13.40
2017-08-22T00:45:29.321Z,13.30
2017-08-22T00:47:57.652Z,13.30
2017-08-22T00:50:26.035Z,13.30
2017-08-22T00:52:54.358Z,13.30
2017-08-22T00:55:22.800Z,13.30
2017-08-22T00:57:51.262Z,13.30
2017-08-22T01:00:19.656Z,13.30
2017-08-22T01:02:47.989Z,13.40
2017-08-22T01:05:16.399Z,13.40
2017-08-22T01:07:44.705Z,13.40
2017-08-22T01:10:13.050Z,13.30
2017-08-22T01:12:41.354Z,13.30
2017-08-22T01:15:09.682Z,13.40
2017-08-22T01:17:37.987Z,13.40
2017-08-22T01:20:06.362Z,13.40
2017-08-22T01:22:34.678Z,13.40
2017-08-22T01:25:03.005Z,13.30
2017-08-22T01:27:31.314Z,13.30
2017-08-22T01:29:59.667Z,13.30
2017-08-22T01:32:28.051Z,13.30
2017-08-22T01:34:56.402Z,13.30
2017-08-22T01:37:24.803Z,13.30
2017-08-22T01:39:53.139Z,13.30
2017-08-22T01:42:21.466Z,13.30
2017-08-22T01:44:49.839Z,13.20
2017-08-22T01:47:18.149Z,13.20
2017-08-22T01:49:46.606Z,13.20
2017-08-22T01:52:14.903Z,13.20
2017-08-22T01:54:43.247Z,13.10
2017-08-22T01:57:11.627Z,13.10
2017-08-22T01:59:39.959Z,13.10
2017-08-22T02:02:08.392Z,13.10
2017-08-22T02:04:36.687Z,13.10
2017-08-22T02:07:05.014Z,13.10
2017-08-22T02:09:33.410Z,13.00
2017-08-22T02:12:01.747Z,13.00
2017-08-22T02:14:30.203Z,13.00
2017-08-22T02:16:58.534Z,13.10
2017-08-22T02:19:26.842Z,13.00
2017-08-22T02:21:55.154Z,13.00
2017-08-22T02:24:23.478Z,13.00
2017-08-22T02:26:51.791Z,13.00
2017-08-22T02:29:20.122Z,13.10
2017-08-22T02:31:48.508Z,13.10
2017-08-22T02:34:16.839Z,13.20
2017-08-22T02:36:45.167Z,13.20
2017-08-22T02:39:13.635Z,13.20
2017-08-22T02:41:41.960Z,13.20
2017-08-22T02:44:10.293Z,13.30
2017-08-22T02:46:38.686Z,13.30
2017-08-22T02:49:07.055Z,13.30
2017-08-22T02:51:35.444Z,13.30
2017-08-22T02:54:03.819Z,13.40
2017-08-22T02:56:32.193Z,13.40
2017-08-22T02:59:00.779Z,13.50
2017-08-22T03:01:29.083Z,13.60
2017-08-22T03:03:57.426Z,13.60
2017-08-22T03:06:25.778Z,13.60
2017-08-22T03:08:54.146Z,13.60
2017-08-22T03:11:22.465Z,13.70
2017-08-22T03:13:50.762Z,13.70
2017-08-22T03:16:19.086Z,13.60
2017-08-22T03:18:47.491Z,13.60
2017-08-22T03:21:15.823Z,13.50
2017-08-22T03:23:44.126Z,13.40
2017-08-22T03:26:12.471Z,13.40
2017-08-22T03:28:40.798Z,13.30
2017-08-22T03:31:09.117Z,13.30
2017-08-22T03:33:37.431Z,13.20
2017-08-22T03:36:06.127Z,13.20
2017-08-22T03:38:34.439Z,13.20
2017-08-22T03:41:02.745Z,13.10
2017-08-22T03:43:31.079Z,13.00
2017-08-22T03:45:59.371Z,13.00
2017-08-22T03:48:27.681Z,12.80
2017-08-22T03:50:55.995Z,12.70
2017-08-22T03:53:24.318Z,12.70
2017-08-22T03:55:52.627Z,12.60
2017-08-22T03:58:20.955Z,12.60
2017-08-22T04:00:49.359Z,12.60
2017-08-22T04:03:17.906Z,12.50
2017-08-22T04:05:46.258Z,12.50
2017-08-22T04:08:14.573Z,12.50
2017-08-22T04:10:42.903Z,12.50
2017-08-22T04:13:11.198Z,12.50
2017-08-22T04:15:39.519Z,12.60
2017-08-22T04:18:07.828Z,12.60
2017-08-22T04:20:36.146Z,12.70
2017-08-22T04:23:04.454Z,12.70
2017-08-22T04:25:32.787Z,12.80
2017-08-22T04:28:01.107Z,12.80
2017-08-22T04:30:29.431Z,12.90
2017-08-22T04:32:57.742Z,12.90
2017-08-22T04:35:26.080Z,12.80
2017-08-22T04:37:54.371Z,12.80
2017-08-22T04:40:22.717Z,12.90
2017-08-22T04:42:51.009Z,12.90
2017-08-22T04:45:19.422Z,12.90
2017-08-22T04:47:47.725Z,12.90
2017-08-22T04:50:16.018Z,12.90
2017-08-22T04:52:44.342Z,12.90
2017-08-22T04:55:12.643Z,12.90
2017-08-22T04:57:40.975Z,12.90
2017-08-22T05:00:09.275Z,12.90
2017-08-22T05:02:37.621Z,12.90
2017-08-22T05:05:06.003Z,12.90
2017-08-22T05:07:34.689Z,12.90
2017-08-22T05:10:03.071Z,13.00
2017-08-22T05:12:31.380Z,13.00
2017-08-22T05:14:59.717Z,13.00
2017-08-22T05:17:28.058Z,13.10
2017-08-22T05:19:56.391Z,13.10
2017-08-22T05:22:24.706Z,13.20
2017-08-22T05:24:53.040Z,13.30
2017-08-22T05:27:21.416Z,13.40
2017-08-22T05:29:49.758Z,13.40
2017-08-22T05:32:18.065Z,13.40
2017-08-22T05:34:46.388Z,13.40
2017-08-22T05:37:14.690Z,13.50
2017-08-22T05:39:43.202Z,13.50
2017-08-22T05:42:11.506Z,13.60
2017-08-22T05:44:39.822Z,13.60
2017-08-22T05:47:08.138Z,13.50
2017-08-22T05:49:36.436Z,13.60
2017-08-22T05:52:04.765Z,13.50
2017-08-22T05:54:33.063Z,13.50
2017-08-22T05:57:01.423Z,13.60
2017-08-22T05:59:29.714Z,13.70
2017-08-22T06:01:58.719Z,13.70
2017-08-22T06:04:27.079Z,13.80
2017-08-22T06:06:55.389Z,13.90
2017-08-22T06:09:23.739Z,13.90
2017-08-22T06:11:52.106Z,13.90
2017-08-22T06:14:20.487Z,13.90
2017-08-22T06:16:48.786Z,13.90
2017-08-22T06:19:17.124Z,14.00
2017-08-22T06:21:45.420Z,14.00
2017-08-22T06:24:13.752Z,14.20
2017-08-22T06:26:42.050Z,14.20
2017-08-22T06:29:10.386Z,14.20
2017-08-22T06:31:38.695Z,14.30
2017-08-22T06:34:07.046Z,14.50
2017-08-22T06:36:35.339Z,14.60
2017-08-22T06:39:03.962Z,14.80
2017-08-22T06:41:32.272Z,14.90
2017-08-22T06:44:00.580Z,15.10
2017-08-22T06:46:28.937Z,15.20
2017-08-22T06:48:57.369Z,15.20
2017-08-22T06:51:25.685Z,15.40
2017-08-22T06:53:54.027Z,15.40
2017-08-22T06:56:22.355Z,15.50
2017-08-22T06:58:50.678Z,15.40
2017-08-22T07:01:19.056Z,15.60
2017-08-22T07:03:47.424Z,15.70
2017-08-22T07:06:16.023Z,16.00
2017-08-22T07:08:44.327Z,16.20
2017-08-22T07:11:12.917Z,16.30
2017-08-22T07:13:41.294Z,16.50
2017-08-22T07:16:09.634Z,16.60
2017-08-22T07:18:37.963Z,16.60
2017-08-22T07:21:06.271Z,16.70
2017-08-22T07:23:34.656Z,16.80
2017-08-22T07:26:03.036Z,16.70
2017-08-22T07:28:31.415Z,16.80
2017-08-22T07:30:59.742Z,16.90
2017-08-22T07:33:28.176Z,17.00
2017-08-22T07:35:56.579Z,17.00
2017-08-22T07:38:24.938Z,17.00
2017-08-22T07:40:53.633Z,16.90
2017-08-22T07:43:21.952Z,16.90
2017-08-22T07:45:50.260Z,16.90
2017-08-22T07:48:18.906Z,16.80
2017-08-22T07:50:47.227Z,16.70
2017-08-22T07:53:15.542Z,16.70
2017-08-22T07:55:43.873Z,16.70
2017-08-22T07:58:12.222Z,16.70
2017-08-22T08:00:40.584Z,16.80
2017-08-22T08:03:08.923Z,16.80
2017-08-22T08:05:37.270Z,16.90
2017-08-22T08:08:05.598Z,16.90
2017-08-22T08:10:34.304Z,16.90
2017-08-22T08:13:02.611Z,16.90
2017-08-22T08:15:30.919Z,16.90
2017-08-22T08:17:59.234Z,17.00
2017-08-22T08:20:27.540Z,17.10
2017-08-22T08:22:55.862Z,17.20
2017-08-22T08:25:24.162Z,17.40
2017-08-22T08:27:52.494Z,17.40
2017-08-22T08:30:20.780Z,17.50
2017-08-22T08:32:49.369Z,17.50
2017-08-22T08:35:17.743Z,17.50
2017-08-22T08:37:46.301Z,17.50
2017-08-22T08:40:14.630Z,17.50
2017-08-22T08:42:42.952Z,17.60
2017-08-22T08:45:11.280Z,17.60
2017-08-22T08:47:39.594Z,17.60
2017-08-22T08:50:07.907Z,17.60
2017-08-22T08:52:36.193Z,17.60
2017-08-22T08:55:04.519Z,17.70
2017-08-22T08:57:32.810Z,17.90
2017-08-22T09:00:01.143Z,18.00
2017-08-22T09:02:29.480Z,18.10
2017-08-22T09:04:57.972Z,18.20
2017-08-22T09:07:26.280Z,18.40
2017-08-22T09:09:54.599Z,18.30
2017-08-22T09:12:22.918Z,18.30
2017-08-22T09:14:51.212Z,18.40
2017-08-22T09:17:19.542Z,18.40
2017-08-22T09:19:48.604Z,18.80
2017-08-22T09:22:16.923Z,18.80
2017-08-22T09:24:45.222Z,19.10
2017-08-22T09:27:13.551Z,19.20
2017-08-22T09:29:41.847Z,19.10
2017-08-22T09:32:10.319Z,19.10
2017-08-22T09:34:39.391Z,19.00
2017-08-22T09:37:07.705Z,18.90
2017-08-22T09:39:43.966Z,19.00
2017-08-22T09:42:12.271Z,19.10
2017-08-22T09:44:40.593Z,19.10
2017-08-22T09:47:08.895Z,18.90
2017-08-22T09:49:37.212Z,19.00
2017-08-22T09:52:05.508Z,18.80
2017-08-22T09:54:33.829Z,19.00
2017-08-22T09:59:36.985Z,19.20
2017-08-22T10:02:05.295Z,19.10
2017-08-22T10:04:33.579Z,19.00
2017-08-22T10:07:01.914Z,19.10
2017-08-22T10:09:30.205Z,19.10
2017-08-22T10:11:58.515Z,19.10
2017-08-22T10:14:26.854Z,19.10
2017-08-22T10:16:55.183Z,18.80
2017-08-22T10:19:23.475Z,18.70
2017-08-22T10:21:51.827Z,18.80
2017-08-22T10:24:20.132Z,19.10
2017-08-22T10:26:48.470Z,19.20
2017-08-22T10:29:16.770Z,19.40
2017-08-22T10:32:20.128Z,19.40
2017-08-22T10:34:48.432Z,19.50
2017-08-22T10:37:16.846Z,19.60
2017-08-22T10:39:45.138Z,19.50
2017-08-22T10:42:13.432Z,19.40
2017-08-22T10:44:41.758Z,19.40
2017-08-22T10:47:10.058Z,19.30
2017-08-22T10:49:38.421Z,19.30
2017-08-22T10:52:06.728Z,19.40
2017-08-22T10:54:35.037Z,19.40
2017-08-22T10:57:03.352Z,19.20
2017-08-22T10:59:31.706Z,19.10
2017-08-22T11:02:00.039Z,19.30
2017-08-22T11:04:28.491Z,19.40
2017-08-22T11:06:56.769Z,19.60
2017-08-22T11:09:25.076Z,19.90
2017-08-22T11:11:53.700Z,20.00
2017-08-22T11:14:21.996Z,20.00
2017-08-22T11:16:50.354Z,20.00
2017-08-22T11:19:18.650Z,20.10
2017-08-22T11:21:46.972Z,20.30
2017-08-22T11:24:15.267Z,20.30
2017-08-22T11:26:43.598Z,20.30
2017-08-22T11:29:11.912Z,20.60
2017-08-22T11:31:40.248Z,20.80
2017-08-22T11:34:08.567Z,20.90
2017-08-22T11:36:37.034Z,21.00
2017-08-22T11:39:06.095Z,20.70
2017-08-22T11:41:34.415Z,20.70
2017-08-22T11:44:02.755Z,20.80
2017-08-22T11:46:31.056Z,20.80
2017-08-22T11:48:59.602Z,20.80
2017-08-22T11:51:27.887Z,20.80
2017-08-22T11:53:56.194Z,21.10
2017-08-22T11:56:24.490Z,21.30
2017-08-22T11:58:52.823Z,21.60
2017-08-22T12:01:21.129Z,21.80
2017-08-22T12:03:49.455Z,21.70
2017-08-22T12:06:17.767Z,21.40
2017-08-22T12:08:46.227Z,21.60
2017-08-22T12:11:14.530Z,21.50
2017-08-22T12:13:42.839Z,21.40
2017-08-22T12:16:11.150Z,21.20
2017-08-22T12:18:39.446Z,21.00
2017-08-22T12:21:07.768Z,21.00
2017-08-22T12:23:36.073Z,21.30
2017-08-22T12:26:04.438Z,21.40
2017-08-22T12:28:32.739Z,21.30
2017-08-22T12:31:01.016Z,21.10
2017-08-22T12:33:29.350Z,20.90
2017-08-22T12:35:57.652Z,21.00
2017-08-22T12:38:25.977Z,21.00
2017-08-22T12:40:54.298Z,21.00
2017-08-22T12:43:22.599Z,21.20
2017-08-22T12:45:50.949Z,21.20
2017-08-22T12:48:19.249Z,21.20
2017-08-22T12:50:47.571Z,21.00
2017-08-22T12:53:15.856Z,20.70
2017-08-22T12:55:44.174Z,20.60
2017-08-22T12:58:12.474Z,20.90
2017-08-22T13:00:40.775Z,21.30
2017-08-22T13:03:09.150Z,21.60
2017-08-22T13:05:37.454Z,21.90
2017-08-22T13:08:05.764Z,22.10
2017-08-22T13:10:34.081Z,22.20
2017-08-22T13:13:02.370Z,22.20
2017-08-22T13:15:31.126Z,22.10
2017-08-22T13:17:59.427Z,22.10
2017-08-22T13:20:27.744Z,21.90
2017-08-22T13:22:56.062Z,21.80
2017-08-22T13:25:24.358Z,21.70
2017-08-22T13:27:52.674Z,21.80
2017-08-22T13:30:20.999Z,21.80
2017-08-22T13:32:49.303Z,21.80
2017-08-22T13:35:17.600Z,21.50
2017-08-22T13:37:45.957Z,21.20
2017-08-22T13:40:14.249Z,21.20
2017-08-22T13:42:42.575Z,21.10
2017-08-22T13:45:10.967Z,21.10
2017-08-22T13:47:41.167Z,21.00
2017-08-22T13:50:09.714Z,21.00
2017-08-22T13:52:38.051Z,20.80
2017-08-22T13:55:07.368Z,20.90
2017-08-22T13:57:36.039Z,21.00
2017-08-22T14:00:04.351Z,21.10
2017-08-22T14:02:32.634Z,21.20
2017-08-22T14:05:01.006Z,21.50
2017-08-22T14:07:29.355Z,21.60
2017-08-22T14:09:57.670Z,21.30
2017-08-22T14:12:25.970Z,21.20
2017-08-22T14:14:54.279Z,21.50
2017-08-22T14:17:22.569Z,21.60
2017-08-22T14:19:50.894Z,21.40
2017-08-22T14:22:19.953Z,21.10
2017-08-22T14:24:48.288Z,21.00
2017-08-22T14:27:16.596Z,21.30
2017-08-22T14:29:45.014Z,21.50
2017-08-22T14:32:13.326Z,21.60
2017-08-22T14:34:41.619Z,21.70
2017-08-22T14:37:09.935Z,21.90
2017-08-22T14:39:38.236Z,21.90
2017-08-22T14:42:06.571Z,21.70
2017-08-22T14:44:34.875Z,21.60
2017-08-22T14:47:03.203Z,21.70
2017-08-22T14:49:31.502Z,21.70
2017-08-22T14:51:59.815Z,22.00
2017-08-22T14:54:28.116Z,22.00
2017-08-22T14:56:56.435Z,22.00
2017-08-22T14:59:24.739Z,22.00
2017-08-22T15:01:53.158Z,21.80
2017-08-22T15:04:21.464Z,21.60
2017-08-22T15:06:49.762Z,21.50
2017-08-22T15:09:18.083Z,21.50
2017-08-22T15:11:46.380Z,21.40
2017-08-22T15:14:14.719Z,21.40
2017-08-22T15:16:43.044Z,21.40
2017-08-22T15:19:11.358Z,21.40
2017-08-22T15:21:39.663Z,21.50
2017-08-22T15:24:07.994Z,21.50
2017-08-22T15:26:36.291Z,21.20
2017-08-22T15:29:04.775Z,21.30
2017-08-22T15:31:33.074Z,21.40
2017-08-22T15:34:01.368Z,21.30
2017-08-22T15:36:29.686Z,21.00
2017-08-22T15:38:57.985Z,20.90
2017-08-22T15:41:26.295Z,20.90
2017-08-22T15:43:55.461Z,20.90
2017-08-22T15:46:23.839Z,20.80
2017-08-22T15:48:52.217Z,20.90
2017-08-22T15:51:20.527Z,20.90
2017-08-22T15:53:48.813Z,21.00
2017-08-22T15:56:17.126Z,21.10
2017-08-22T15:58:45.421Z,21.10
2017-08-22T16:01:13.751Z,21.10
2017-08-22T16:03:42.039Z,21.40
2017-08-22T16:06:10.459Z,21.80
2017-08-22T16:08:38.789Z,22.30
2017-08-22T16:11:07.092Z,22.90
2017-08-22T16:13:35.401Z,23.60
2017-08-22T16:16:03.734Z,23.80
2017-08-22T16:18:32.068Z,23.50
2017-08-22T16:21:00.630Z,22.70
2017-08-22T16:23:28.946Z,22.00
2017-08-22T16:25:57.231Z,21.60
2017-08-22T16:28:25.554Z,21.40
2017-08-22T16:30:53.854Z,21.00
2017-08-22T16:33:22.301Z,20.90
2017-08-22T16:35:50.592Z,20.80
2017-08-22T16:38:18.890Z,20.70
2017-08-22T16:40:47.221Z,20.50
2017-08-22T16:43:15.538Z,20.40
2017-08-22T16:45:43.854Z,20.40
2017-08-22T16:48:12.151Z,20.40
2017-08-22T16:50:40.467Z,20.80
2017-08-22T16:53:08.782Z,21.60
2017-08-22T16:55:37.122Z,22.20
2017-08-22T16:58:05.413Z,22.70
2017-08-22T17:00:33.850Z,22.50
2017-08-22T17:03:02.156Z,22.20
2017-08-22T17:05:30.442Z,22.10
2017-08-22T17:07:58.782Z,22.20
2017-08-22T17:10:27.054Z,22.00
2017-08-22T17:12:56.138Z,21.30
2017-08-22T17:15:24.431Z,21.30
2017-08-22T17:17:52.741Z,21.00
2017-08-22T17:20:21.051Z,20.90
2017-08-22T17:22:49.366Z,20.70
2017-08-22T17:25:17.704Z,20.50
2017-08-22T17:27:46.032Z,20.30
2017-08-22T17:30:14.328Z,20.20
2017-08-22T17:32:42.630Z,20.20
2017-08-22T17:35:10.932Z,20.00
2017-08-22T17:37:39.383Z,19.90
2017-08-22T17:40:07.695Z,19.70
2017-08-22T17:42:35.990Z,19.60
2017-08-22T17:45:04.314Z,19.40
2017-08-22T17:47:32.618Z,19.30
2017-08-22T17:50:00.971Z,19.20
2017-08-22T17:52:29.282Z,19.00
2017-08-22T17:54:57.660Z,18.90
2017-08-22T17:57:26.002Z,18.80
2017-08-22T17:59:54.363Z,18.80
2017-08-22T18:02:22.651Z,18.70
2017-08-22T18:04:51.144Z,18.70
2017-08-22T18:07:19.466Z,18.60
2017-08-22T18:09:47.775Z,18.60
2017-08-22T18:12:16.096Z,18.50
2017-08-22T18:14:45.155Z,18.30
2017-08-22T18:17:13.676Z,18.30
2017-08-22T18:19:42.211Z,18.10
2017-08-22T18:22:10.601Z,18.00
2017-08-22T18:24:38.930Z,17.90
2017-08-22T18:27:07.307Z,17.80
2017-08-22T18:29:35.731Z,17.70
2017-08-22T18:32:04.074Z,17.60
2017-08-22T18:34:32.404Z,17.50
2017-08-22T18:37:00.875Z,17.40
2017-08-22T18:39:29.192Z,17.30
2017-08-22T18:41:57.621Z,17.20
2017-08-22T18:44:26.077Z,17.20
2017-08-22T18:46:54.407Z,17.10
2017-08-22T18:49:22.839Z,17.10
2017-08-22T18:51:51.200Z,17.00
2017-08-22T18:54:19.527Z,16.90
2017-08-22T18:56:47.835Z,16.90
2017-08-22T18:59:16.189Z,16.80
2017-08-22T19:01:45.292Z,16.70
2017-08-22T19:04:13.776Z,16.70
2017-08-22T19:06:42.107Z,16.60
2017-08-22T19:09:10.471Z,16.60
2017-08-22T19:11:38.850Z,16.60
2017-08-22T19:14:07.176Z,16.50
2017-08-22T19:16:35.515Z,16.50
2017-08-22T19:19:03.820Z,16.40
2017-08-22T19:21:32.143Z,16.40
2017-08-22T19:24:00.455Z,16.40
2017-08-22T19:26:28.782Z,16.30
2017-08-22T19:28:57.083Z,16.20
2017-08-22T19:31:25.431Z,16.20
2017-08-22T19:33:53.755Z,16.10
2017-08-22T19:36:22.272Z,16.00
2017-08-22T19:38:50.558Z,16.00
2017-08-22T19:41:18.887Z,16.00
2017-08-22T19:43:47.222Z,15.90
2017-08-22T19:46:15.571Z,15.90
2017-08-22T19:48:43.903Z,15.80
2017-08-22T19:51:12.545Z,15.80
2017-08-22T19:53:40.876Z,15.70
2017-08-22T19:56:09.195Z,15.70
2017-08-22T19:58:37.607Z,15.60
2017-08-22T20:01:06.105Z,15.60
2017-08-22T20:03:34.654Z,15.50
2017-08-22T20:06:03.003Z,15.50
2017-08-22T20:08:31.501Z,15.40
2017-08-22T20:10:59.882Z,15.40
2017-08-22T20:13:28.637Z,15.30
2017-08-22T20:15:57.886Z,15.30
2017-08-22T20:18:26.228Z,15.30
2017-08-22T20:20:54.567Z,15.20
2017-08-22T20:23:23.012Z,15.10
2017-08-22T20:25:51.355Z,15.10
2017-08-22T20:28:19.635Z,15.00
2017-08-22T20:30:48.873Z,14.90
2017-08-22T20:33:17.206Z,14.90
2017-08-22T20:35:45.553Z,14.90
2017-08-22T20:38:13.920Z,14.90
2017-08-22T20:40:42.226Z,14.80
2017-08-22T20:43:10.578Z,14.80
2017-08-22T20:45:38.907Z,14.70
2017-08-22T20:48:07.236Z,14.70
2017-08-22T20:50:35.572Z,14.70
2017-08-22T20:53:04.069Z,14.60
2017-08-22T20:55:32.404Z,14.60
2017-08-22T20:58:00.741Z,14.50
2017-08-22T21:00:29.100Z,14.50
2017-08-22T21:02:57.899Z,14.40
2017-08-22T21:05:26.314Z,14.40
2017-08-22T21:07:54.623Z,14.30
2017-08-22T21:10:22.955Z,14.30
2017-08-22T21:12:51.328Z,14.30
2017-08-22T21:15:19.672Z,14.20
2017-08-22T21:17:48.016Z,14.20
2017-08-22T21:20:16.338Z,14.20
2017-08-22T21:22:44.689Z,14.20
2017-08-22T21:25:13.017Z,14.10
2017-08-22T21:27:41.331Z,14.10
2017-08-22T21:30:09.768Z,14.00
2017-08-22T21:32:38.173Z,14.00
2017-08-22T21:35:06.681Z,13.90
2017-08-22T21:37:35.759Z,13.90
2017-08-22T21:40:04.136Z,13.80
2017-08-22T21:42:32.482Z,13.80
2017-08-22T21:45:00.800Z,13.80
2017-08-22T21:47:29.265Z,13.70
2017-08-22T21:49:57.574Z,13.70
2017-08-22T21:52:25.939Z,13.70
2017-08-22T21:54:54.273Z,13.60
2017-08-22T21:57:22.724Z,13.60
2017-08-22T21:59:51.026Z,13.60
2017-08-22T22:02:19.434Z,13.60
2017-08-22T22:04:47.806Z,13.60
2017-08-22T22:07:16.090Z,13.50
2017-08-22T22:09:44.444Z,13.50
2017-08-22T22:12:12.796Z,13.50
2017-08-22T22:14:41.128Z,13.50
2017-08-22T22:17:09.448Z,13.50
2017-08-22T22:19:37.798Z,13.40
2017-08-22T22:22:06.106Z,13.40
2017-08-22T22:24:34.567Z,13.40
2017-08-22T22:27:02.896Z,13.40
2017-08-22T22:29:31.210Z,13.40
2017-08-22T22:31:59.549Z,13.30
2017-08-22T22:34:27.868Z,13.30
2017-08-22T22:36:56.215Z,13.20
2017-08-22T22:39:24.533Z,13.20
2017-08-22T22:41:52.895Z,13.20
2017-08-22T22:44:21.196Z,13.20
2017-08-22T22:46:49.580Z,13.20
2017-08-22T22:49:17.904Z,13.20
2017-08-22T22:51:46.278Z,13.10
2017-08-22T22:54:14.573Z,13.10
2017-08-22T22:56:42.909Z,13.00
2017-08-22T22:59:11.237Z,13.00
2017-08-22T23:01:39.685Z,13.00
2017-08-22T23:04:07.990Z,13.00
2017-08-22T23:06:36.293Z,13.00
2017-08-22T23:09:04.632Z,13.00
2017-08-22T23:11:32.949Z,13.00
2017-08-22T23:14:01.280Z,13.00
2017-08-22T23:16:30.418Z,12.90
2017-08-22T23:18:58.805Z,12.80
2017-08-22T23:21:27.108Z,12.90
2017-08-22T23:23:55.426Z,12.80
2017-08-22T23:26:23.723Z,12.80
2017-08-22T23:28:52.050Z,12.70
2017-08-22T23:31:20.371Z,12.80
2017-08-22T23:33:48.819Z,12.70
2017-08-22T23:36:17.138Z,12.70
2017-08-22T23:38:45.451Z,12.70
2017-08-22T23:41:14.543Z,12.60
2017-08-22T23:43:43.052Z,12.60
2017-08-22T23:46:11.389Z,12.60
2017-08-22T23:48:39.691Z,12.60
2017-08-22T23:51:08.049Z,12.60
2017-08-22T23:53:36.359Z,12.50
2017-08-22T23:56:04.702Z,12.50
2017-08-22T23:58:32.989Z,12.50
